createdAt,value
2022-07-29T00:00:03.305Z,2.72
2022-07-29T00:03:07.409Z,2.58
2022-07-29T00:06:11.625Z,2.65
2022-07-29T00:09:14.902Z,2.90
2022-07-29T00:12:21.336Z,2.87
2022-07-29T00:15:28.516Z,2.72
2022-07-29T00:18:31.817Z,2.83
2022-07-29T00:21:34.689Z,2.83
2022-07-29T00:24:38.151Z,2.30
2022-07-29T00:27:41.658Z,2.73
2022-07-29T00:30:44.842Z,2.80
2022-07-29T00:33:47.738Z,2.80
2022-07-29T00:36:50.764Z,2.80
2022-07-29T00:39:53.743Z,2.83
2022-07-29T00:42:57.321Z,2.70
2022-07-29T00:46:01.213Z,2.58
2022-07-29T00:49:04.495Z,2.60
2022-07-29T00:52:07.990Z,2.62
2022-07-29T00:55:14.059Z,2.40
2022-07-29T00:58:16.676Z,2.67
2022-07-29T01:01:20.671Z,2.40
2022-07-29T01:04:23.504Z,2.58
2022-07-29T01:07:27.342Z,2.60
2022-07-29T01:10:30.691Z,2.60
2022-07-29T01:13:35.035Z,2.70
2022-07-29T01:16:47.549Z,2.70
2022-07-29T01:20:08.775Z,2.60
2022-07-29T01:23:31.556Z,2.78
2022-07-29T01:26:49.164Z,2.70
2022-07-29T01:29:59.936Z,2.67
2022-07-29T01:33:09.831Z,2.83
2022-07-29T01:36:17.563Z,2.55
2022-07-29T01:39:31.676Z,2.33
2022-07-29T01:42:44.238Z,2.50
2022-07-29T01:45:54.838Z,2.60
2022-07-29T01:49:03.452Z,2.72
2022-07-29T01:52:09.611Z,2.58
2022-07-29T01:55:16.544Z,2.78
2022-07-29T01:58:20.518Z,3.00
2022-07-29T02:01:25.478Z,3.00
2022-07-29T02:04:30.498Z,3.22
2022-07-29T02:07:34.177Z,3.60
2022-07-29T02:10:38.471Z,3.40
2022-07-29T02:13:42.917Z,2.55
2022-07-29T02:16:46.615Z,2.53
2022-07-29T02:19:50.452Z,2.58
2022-07-29T02:22:54.449Z,2.70
2022-07-29T02:25:58.365Z,2.92
2022-07-29T02:29:03.213Z,2.72
2022-07-29T02:32:07.871Z,2.70
2022-07-29T02:35:14.540Z,2.83
2022-07-29T02:38:36.904Z,2.62
2022-07-29T02:41:44.229Z,2.60
2022-07-29T02:44:46.906Z,2.85
2022-07-29T02:47:51.289Z,2.90
2022-07-29T02:51:02.356Z,2.95
2022-07-29T02:54:08.552Z,2.65
2022-07-29T02:57:21.861Z,2.75
2022-07-29T03:00:28.472Z,2.70
2022-07-29T03:03:37.890Z,2.70
2022-07-29T03:06:41.883Z,2.40
2022-07-29T03:09:45.579Z,2.83
2022-07-29T03:12:49.566Z,2.55
2022-07-29T03:15:52.997Z,2.55
2022-07-29T03:18:56.613Z,2.60
2022-07-29T03:22:00.329Z,2.85
2022-07-29T03:25:11.435Z,2.60
2022-07-29T03:28:14.461Z,2.58
2022-07-29T03:31:19.659Z,3.03
2022-07-29T03:34:23.827Z,2.77
2022-07-29T03:37:27.528Z,2.78
2022-07-29T03:40:44.123Z,3.10
2022-07-29T03:43:49.511Z,2.45
2022-07-29T03:46:53.868Z,2.37
2022-07-29T03:50:01.688Z,2.73
2022-07-29T03:53:05.223Z,3.10
2022-07-29T03:56:09.222Z,2.72
2022-07-29T03:59:12.767Z,2.60
2022-07-29T04:02:20.175Z,2.60
2022-07-29T04:05:25.801Z,2.70
2022-07-29T04:08:29.134Z,2.40
2022-07-29T04:11:32.692Z,2.80
2022-07-29T04:14:36.746Z,2.80
2022-07-29T04:17:40.047Z,2.75
2022-07-29T04:20:42.704Z,2.77
2022-07-29T04:23:53.906Z,2.60
2022-07-29T04:26:57.074Z,3.37
2022-07-29T04:30:00.781Z,2.95
2022-07-29T04:33:07.258Z,2.90
2022-07-29T04:36:28.344Z,3.13
2022-07-29T04:39:33.382Z,3.10
2022-07-29T04:42:36.294Z,3.10
2022-07-29T04:45:50.293Z,2.83
2022-07-29T04:48:54.852Z,2.87
2022-07-29T04:51:57.584Z,2.77
2022-07-29T04:55:00.703Z,3.22
2022-07-29T04:58:03.454Z,3.00
2022-07-29T05:01:06.757Z,2.70
2022-07-29T05:04:09.854Z,3.35
2022-07-29T05:07:13.286Z,3.03
2022-07-29T05:10:16.557Z,3.10
2022-07-29T05:13:19.729Z,3.55
2022-07-29T05:16:22.784Z,2.95
2022-07-29T05:19:26.006Z,2.90
2022-07-29T05:22:29.190Z,3.20
2022-07-29T05:25:43.281Z,3.10
2022-07-29T05:28:47.946Z,3.53
2022-07-29T05:31:52.497Z,3.50
2022-07-29T05:34:55.033Z,2.95
2022-07-29T05:37:58.368Z,3.10
2022-07-29T05:41:01.328Z,3.37
2022-07-29T05:44:05.366Z,3.17
2022-07-29T05:47:08.482Z,3.75
2022-07-29T05:50:11.873Z,3.12
2022-07-29T05:53:19.463Z,2.93
2022-07-29T05:56:23.107Z,3.30
2022-07-29T05:59:30.151Z,3.17
2022-07-29T06:02:33.418Z,3.72
2022-07-29T06:05:36.788Z,3.50
2022-07-29T06:08:39.701Z,3.30
2022-07-29T06:11:42.971Z,3.12
2022-07-29T06:14:46.973Z,3.50
2022-07-29T06:18:00.078Z,3.65
2022-07-29T06:21:09.657Z,3.58
2022-07-29T06:24:13.896Z,3.37
2022-07-29T06:27:17.583Z,3.35
2022-07-29T06:30:20.796Z,3.53
2022-07-29T06:33:23.657Z,3.50
2022-07-29T06:36:26.948Z,3.30
2022-07-29T06:39:31.176Z,3.60
2022-07-29T06:42:34.111Z,3.50
2022-07-29T06:45:37.379Z,3.70
2022-07-29T06:48:42.015Z,3.47
2022-07-29T06:51:44.786Z,3.80
2022-07-29T06:54:49.146Z,3.10
2022-07-29T06:57:52.423Z,3.78
2022-07-29T07:00:58.925Z,3.30
2022-07-29T07:04:01.581Z,3.67
2022-07-29T07:07:05.196Z,3.83
2022-07-29T07:10:08.435Z,3.70
2022-07-29T07:13:11.986Z,3.87
2022-07-29T07:16:14.915Z,3.58
2022-07-29T07:19:20.238Z,3.70
2022-07-29T07:22:23.061Z,3.78
2022-07-29T07:25:27.067Z,3.40
2022-07-29T07:28:30.325Z,3.70
2022-07-29T07:31:34.007Z,3.70
2022-07-29T07:34:38.890Z,3.47
2022-07-29T07:37:42.628Z,3.70
2022-07-29T07:40:47.415Z,3.37
2022-07-29T07:43:50.740Z,3.58
2022-07-29T07:46:53.558Z,3.62
2022-07-29T07:49:58.310Z,3.45
2022-07-29T07:53:03.056Z,3.37
2022-07-29T07:56:10.842Z,4.00
2022-07-29T07:59:15.295Z,3.50
2022-07-29T08:02:18.239Z,3.92
2022-07-29T08:05:21.991Z,3.75
2022-07-29T08:08:25.568Z,3.80
2022-07-29T08:11:28.592Z,3.50
2022-07-29T08:14:36.905Z,3.70
2022-07-29T08:17:40.634Z,4.03
2022-07-29T08:20:43.309Z,3.78
2022-07-29T08:23:58.595Z,3.90
2022-07-29T08:27:02.391Z,3.27
2022-07-29T08:30:06.516Z,3.92
2022-07-29T08:33:10.097Z,4.18
2022-07-29T08:36:14.277Z,3.42
2022-07-29T08:39:17.023Z,3.30
2022-07-29T08:42:20.126Z,4.10
2022-07-29T08:45:24.563Z,3.78
2022-07-29T08:48:27.476Z,3.87
2022-07-29T08:51:49.440Z,4.10
2022-07-29T08:54:54.397Z,3.97
2022-07-29T08:57:59.963Z,3.60
2022-07-29T09:01:04.566Z,3.62
2022-07-29T09:04:12.755Z,4.15
2022-07-29T09:07:17.268Z,3.25
2022-07-29T09:10:20.244Z,3.50
2022-07-29T09:13:23.885Z,3.60
2022-07-29T09:16:51.052Z,3.87
2022-07-29T09:19:49.829Z,4.10
2022-07-29T09:22:54.574Z,3.80
2022-07-29T09:26:06.851Z,3.55
2022-07-29T09:29:17.006Z,3.50
2022-07-29T09:32:19.884Z,3.20
2022-07-29T09:35:24.814Z,2.97
2022-07-29T09:38:27.791Z,3.10
2022-07-29T09:41:31.356Z,3.30
2022-07-29T09:44:45.576Z,2.97
2022-07-29T09:47:50.226Z,3.08
2022-07-29T09:50:53.582Z,3.40
2022-07-29T09:53:57.033Z,2.87
2022-07-29T09:57:00.350Z,3.30
2022-07-29T10:00:08.510Z,2.57
2022-07-29T10:03:15.753Z,2.78
2022-07-29T10:06:19.112Z,3.00
2022-07-29T10:09:22.290Z,2.35
2022-07-29T10:12:26.033Z,2.70
2022-07-29T10:15:31.069Z,2.67
2022-07-29T10:18:35.266Z,3.30
2022-07-29T10:21:38.847Z,2.80
2022-07-29T10:24:42.390Z,2.95
2022-07-29T10:27:47.605Z,2.97
2022-07-29T10:30:51.983Z,2.83
2022-07-29T10:34:43.286Z,2.85
2022-07-29T10:38:47.176Z,3.00
2022-07-29T10:42:01.256Z,3.10
2022-07-29T10:45:07.346Z,3.00
2022-07-29T10:48:10.512Z,2.87
2022-07-29T10:51:13.753Z,2.50
2022-07-29T10:54:39.732Z,3.12
2022-07-29T10:58:19.055Z,3.33
2022-07-29T11:01:37.120Z,3.20
2022-07-29T11:05:06.595Z,2.93
2022-07-29T11:08:21.095Z,3.00
2022-07-29T11:11:29.655Z,3.20
2022-07-29T11:14:54.997Z,2.70
2022-07-29T11:18:01.269Z,2.90
2022-07-29T11:21:04.203Z,2.90
2022-07-29T11:24:29.260Z,2.80
2022-07-29T11:27:40.569Z,2.70
2022-07-29T11:30:53.476Z,2.80
2022-07-29T11:33:56.976Z,2.90
2022-07-29T11:37:09.455Z,2.40
2022-07-29T11:40:14.813Z,3.03
2022-07-29T11:43:47.968Z,3.10
2022-07-29T11:46:54.747Z,3.17
2022-07-29T11:49:59.885Z,3.08
2022-07-29T11:53:14.113Z,2.93
2022-07-29T11:56:18.827Z,3.03
2022-07-29T11:59:22.735Z,2.72
2022-07-29T12:02:48.489Z,2.83
2022-07-29T12:05:52.078Z,3.17
2022-07-29T12:08:55.376Z,3.10
2022-07-29T12:12:04.902Z,2.62
2022-07-29T12:15:17.037Z,2.67
2022-07-29T12:18:24.603Z,2.83
2022-07-29T12:21:29.042Z,2.55
2022-07-29T12:24:45.078Z,2.77
2022-07-29T12:27:48.588Z,2.53
2022-07-29T12:30:53.178Z,2.95
2022-07-29T12:33:56.247Z,2.92
2022-07-29T12:37:02.229Z,3.10
2022-07-29T12:40:06.355Z,2.53
2022-07-29T12:43:17.866Z,2.70
2022-07-29T12:46:20.801Z,3.05
2022-07-29T12:49:24.191Z,2.92
2022-07-29T12:52:28.402Z,2.67
2022-07-29T12:55:43.043Z,2.53
2022-07-29T12:58:49.394Z,2.70
2022-07-29T13:01:54.464Z,2.70
2022-07-29T13:04:59.007Z,2.42
2022-07-29T13:08:22.301Z,3.03
2022-07-29T13:11:37.757Z,3.07
2022-07-29T13:14:48.726Z,2.80
2022-07-29T13:17:51.732Z,2.95
2022-07-29T13:20:55.899Z,2.75
2022-07-29T13:23:59.085Z,3.25
2022-07-29T13:27:02.288Z,2.80
2022-07-29T13:30:10.398Z,2.67
2022-07-29T13:33:13.518Z,2.95
2022-07-29T13:36:16.210Z,2.75
2022-07-29T13:39:19.670Z,2.95
2022-07-29T13:42:23.527Z,3.00
2022-07-29T13:45:29.265Z,2.97
2022-07-29T13:48:32.887Z,3.28
2022-07-29T13:51:36.356Z,2.80
2022-07-29T13:54:42.692Z,2.78
2022-07-29T13:57:46.758Z,2.67
2022-07-29T14:00:49.809Z,2.85
2022-07-29T14:03:53.090Z,2.75
2022-07-29T14:06:56.116Z,2.60
2022-07-29T14:09:59.570Z,2.97
2022-07-29T14:13:02.367Z,2.40
2022-07-29T14:16:07.987Z,2.58
2022-07-29T14:19:14.885Z,2.90
2022-07-29T14:22:19.951Z,2.53
2022-07-29T14:25:26.223Z,3.35
2022-07-29T14:28:29.497Z,2.87
2022-07-29T14:31:32.222Z,2.65
2022-07-29T14:34:36.556Z,2.60
2022-07-29T14:37:40.195Z,2.80
2022-07-29T14:40:43.863Z,3.22
2022-07-29T14:43:46.881Z,2.77
2022-07-29T14:46:50.599Z,2.33
2022-07-29T14:49:53.767Z,2.50
2022-07-29T14:52:57.101Z,2.83
2022-07-29T14:56:10.293Z,2.70
2022-07-29T14:59:18.697Z,2.67
2022-07-29T15:02:21.768Z,2.72
2022-07-29T15:05:25.350Z,2.90
2022-07-29T15:08:30.874Z,2.75
2022-07-29T15:11:38.275Z,3.10
2022-07-29T15:14:41.984Z,2.97
2022-07-29T15:17:44.897Z,2.42
2022-07-29T15:20:47.720Z,2.67
2022-07-29T15:23:50.768Z,2.97
2022-07-29T15:26:53.635Z,3.00
2022-07-29T15:29:56.754Z,2.40
2022-07-29T15:32:59.513Z,2.50
2022-07-29T15:36:02.613Z,2.65
2022-07-29T15:39:05.759Z,2.60
2022-07-29T15:42:09.397Z,2.70
2022-07-29T15:45:12.066Z,3.03
2022-07-29T15:48:15.782Z,3.58
2022-07-29T15:51:21.643Z,3.87
2022-07-29T15:54:25.162Z,4.00
2022-07-29T15:57:28.188Z,3.12
2022-07-29T16:00:31.555Z,2.80
2022-07-29T16:03:34.537Z,2.50
2022-07-29T16:06:37.476Z,2.83
2022-07-29T16:09:41.235Z,2.90
2022-07-29T16:12:43.969Z,2.78
2022-07-29T16:16:02.255Z,2.70
2022-07-29T16:19:06.431Z,2.72
2022-07-29T16:22:09.407Z,2.70
2022-07-29T16:25:12.361Z,2.58
2022-07-29T16:28:15.884Z,2.90
2022-07-29T16:31:22.498Z,2.63
2022-07-29T16:34:26.026Z,2.80
2022-07-29T16:37:37.947Z,2.58
2022-07-29T16:40:42.437Z,2.75
2022-07-29T16:43:45.145Z,2.55
2022-07-29T16:46:48.873Z,2.50
2022-07-29T16:49:52.809Z,2.58
2022-07-29T16:52:56.692Z,2.72
2022-07-29T16:55:59.980Z,2.80
2022-07-29T16:59:03.533Z,2.97
2022-07-29T17:02:06.892Z,2.60
2022-07-29T17:05:11.340Z,2.50
2022-07-29T17:08:14.147Z,3.03
2022-07-29T17:11:17.322Z,2.80
2022-07-29T17:14:24.002Z,2.65
2022-07-29T17:17:38.991Z,2.60
2022-07-29T17:20:51.631Z,2.60
2022-07-29T17:23:54.760Z,2.80
2022-07-29T17:26:57.592Z,3.10
2022-07-29T17:30:01.160Z,3.25
2022-07-29T17:33:04.142Z,3.07
2022-07-29T17:36:27.165Z,2.80
2022-07-29T17:39:30.207Z,3.05
2022-07-29T17:42:33.279Z,3.25
2022-07-29T17:45:50.266Z,3.03
2022-07-29T17:48:56.050Z,3.23
2022-07-29T17:52:00.975Z,2.90
2022-07-29T17:55:04.987Z,3.10
2022-07-29T17:58:10.338Z,3.28
2022-07-29T18:01:14.628Z,3.10
2022-07-29T18:04:21.152Z,3.50
2022-07-29T18:07:24.425Z,3.25
2022-07-29T18:10:27.593Z,3.10
2022-07-29T18:13:30.158Z,2.85
2022-07-29T18:16:34.151Z,2.50
2022-07-29T18:19:36.861Z,2.87
2022-07-29T18:22:40.298Z,2.78
2022-07-29T18:25:43.359Z,2.35
2022-07-29T18:28:46.672Z,2.83
2022-07-29T18:31:50.327Z,2.92
2022-07-29T18:34:53.671Z,2.77
2022-07-29T18:38:01.160Z,2.53
2022-07-29T18:41:05.975Z,3.35
2022-07-29T18:44:09.778Z,2.80
2022-07-29T18:47:13.170Z,2.78
2022-07-29T18:50:16.887Z,2.80
2022-07-29T18:53:20.159Z,2.87
2022-07-29T18:56:22.753Z,3.00
2022-07-29T18:59:28.576Z,3.00
2022-07-29T19:02:31.604Z,3.40
2022-07-29T19:05:35.119Z,3.77
2022-07-29T19:08:37.810Z,3.65
2022-07-29T19:11:41.550Z,4.00
2022-07-29T19:14:44.552Z,4.32
2022-07-29T19:17:52.057Z,3.87
2022-07-29T19:20:54.924Z,3.50
2022-07-29T19:24:01.696Z,3.83
2022-07-29T19:27:10.232Z,3.58
2022-07-29T19:30:13.893Z,4.10
2022-07-29T19:33:18.928Z,4.20
2022-07-29T19:36:21.911Z,3.90
2022-07-29T19:39:34.933Z,4.25
2022-07-29T19:42:39.232Z,3.50
2022-07-29T19:45:42.317Z,3.78
2022-07-29T19:48:45.969Z,3.40
2022-07-29T19:51:49.035Z,3.40
2022-07-29T19:54:52.062Z,3.60
2022-07-29T19:57:55.574Z,3.70
2022-07-29T20:00:58.758Z,3.83
2022-07-29T20:04:01.815Z,3.65
2022-07-29T20:07:05.754Z,3.60
2022-07-29T20:10:10.449Z,3.42
2022-07-29T20:13:13.308Z,3.37
2022-07-29T20:16:16.901Z,3.55
2022-07-29T20:19:20.089Z,3.00
2022-07-29T20:22:23.439Z,3.50
2022-07-29T20:25:26.099Z,3.42
2022-07-29T20:28:29.581Z,3.60
2022-07-29T20:31:32.903Z,3.33
2022-07-29T20:34:36.438Z,3.22
2022-07-29T20:37:52.210Z,3.23
2022-07-29T20:40:59.683Z,3.53
2022-07-29T20:44:03.301Z,3.08
2022-07-29T20:47:06.582Z,3.50
2022-07-29T20:50:10.180Z,3.62
2022-07-29T20:53:13.650Z,3.20
2022-07-29T20:56:16.482Z,3.50
2022-07-29T20:59:19.602Z,3.42
2022-07-29T21:02:22.181Z,3.67
2022-07-29T21:05:28.213Z,3.08
2022-07-29T21:08:31.310Z,3.30
2022-07-29T21:11:43.265Z,3.62
2022-07-29T21:14:48.157Z,3.80
2022-07-29T21:17:59.726Z,3.40
2022-07-29T21:21:04.538Z,3.60
2022-07-29T21:24:08.174Z,3.20
2022-07-29T21:27:33.633Z,3.60
2022-07-29T21:30:37.275Z,3.75
2022-07-29T21:33:42.043Z,3.42
2022-07-29T21:36:58.501Z,3.65
2022-07-29T21:40:02.098Z,3.30
2022-07-29T21:43:08.844Z,3.50
2022-07-29T21:46:12.644Z,3.55
2022-07-29T21:49:16.545Z,3.60
2022-07-29T21:52:19.579Z,3.28
2022-07-29T21:55:24.414Z,3.53
2022-07-29T21:58:29.652Z,3.25
2022-07-29T22:01:38.999Z,3.12
2022-07-29T22:04:43.011Z,3.37
2022-07-29T22:07:55.585Z,3.50
2022-07-29T22:11:00.756Z,2.87
2022-07-29T22:14:06.198Z,2.97
2022-07-29T22:17:09.164Z,3.00
2022-07-29T22:20:12.418Z,3.28
2022-07-29T22:23:15.383Z,3.20
2022-07-29T22:26:19.222Z,3.10
2022-07-29T22:29:22.354Z,3.17
2022-07-29T22:32:25.458Z,3.15
2022-07-29T22:35:28.517Z,3.15
2022-07-29T22:38:31.813Z,3.15
2022-07-29T22:41:35.110Z,3.03
2022-07-29T22:44:38.124Z,3.00
2022-07-29T22:47:47.892Z,3.60
2022-07-29T22:50:51.764Z,3.22
2022-07-29T22:53:54.821Z,3.20
2022-07-29T22:56:57.907Z,3.03
2022-07-29T23:00:02.603Z,3.17
2022-07-29T23:03:06.267Z,3.47
2022-07-29T23:06:09.489Z,3.30
2022-07-29T23:09:12.169Z,3.65
2022-07-29T23:12:15.601Z,3.10
2022-07-29T23:15:18.528Z,3.20
2022-07-29T23:18:22.755Z,2.90
2022-07-29T23:21:26.285Z,2.90
2022-07-29T23:24:29.683Z,3.10
2022-07-29T23:27:33.064Z,3.20
2022-07-29T23:30:36.687Z,3.08
2022-07-29T23:33:41.134Z,3.65
2022-07-29T23:36:44.374Z,3.37
2022-07-29T23:39:47.135Z,3.08
2022-07-29T23:42:50.508Z,3.40
2022-07-29T23:45:53.691Z,3.45
2022-07-29T23:48:56.797Z,4.05
2022-07-29T23:52:00.024Z,3.92
2022-07-29T23:55:37.253Z,3.50
2022-07-29T23:58:26.115Z,4.10
